Time;durP1;ratioP1;P1;durP2;ratioP2;P2;SDS_P1;SDS_P2;PMS_P1;PMS_P2;Temp;Humidity;BMP_temperature;BMP_pressure;BME280_temperature;BME280_humidity;BME280_pressure;Samples;Min_cycle;Max_cycle;Signal;HPM_P1;HPM_P2
2022/12/07 00:02:20;;;;;;;10.67;8.03;;;11.70;99.90;;;;;;10505927;28;20710;-81
2022/12/07 00:07:23;;;;;;;9.07;7.83;;;12.40;99.90;;;;;;10517599;28;20275;-81
2022/12/07 00:12:29;;;;;;;9.43;6.70;;;12.60;99.90;;;;;;10521235;28;20240;-81
2022/12/07 00:17:33;;;;;;;9.63;7.47;;;13.30;99.90;;;;;;10520230;28;20259;-82
2022/12/07 00:22:35;;;;;;;10.00;7.97;;;13.20;99.90;;;;;;10501807;28;20737;-81
2022/12/07 00:27:38;;;;;;;8.87;7.00;;;12.90;99.90;;;;;;10514747;28;20226;-81
2022/12/07 00:32:40;;;;;;;8.47;6.13;;;13.10;99.90;;;;;;10499992;28;20271;-82
2022/12/07 00:37:43;;;;;;;10.20;7.97;;;13.00;99.90;;;;;;10531806;28;20233;-82
2022/12/07 00:42:45;;;;;;;6.63;4.93;;;13.30;99.90;;;;;;10529480;28;20271;-82
2022/12/07 00:47:47;;;;;;;11.40;8.30;;;14.00;99.90;;;;;;10522180;28;20285;-82
2022/12/07 00:52:50;;;;;;;8.87;6.97;;;13.60;99.90;;;;;;10518591;28;20229;-82
2022/12/07 00:57:52;;;;;;;9.73;6.67;;;13.60;99.90;;;;;;10515696;28;20265;-81
2022/12/07 01:02:55;;;;;;;6.87;4.60;;;13.50;99.90;;;;;;10513693;28;20899;-82
2022/12/07 01:07:57;;;;;;;8.97;6.10;;;13.40;99.90;;;;;;10515855;28;20229;-81
2022/12/07 01:13:00;;;;;;;9.80;7.57;;;13.80;99.90;;;;;;10496641;28;20242;-82
2022/12/07 01:18:02;;;;;;;7.50;5.90;;;13.80;99.90;;;;;;10528101;28;20234;-82
2022/12/07 01:23:05;;;;;;;8.10;6.87;;;13.70;99.90;;;;;;10499676;28;20307;-82
2022/12/07 01:28:07;;;;;;;8.27;6.20;;;13.80;99.90;;;;;;10517948;28;20680;-81
2022/12/07 01:33:09;;;;;;;8.10;6.40;;;14.30;99.90;;;;;;10501416;28;20270;-82
2022/12/07 01:38:12;;;;;;;7.87;6.03;;;13.70;99.90;;;;;;10520706;28;20260;-81
2022/12/07 01:43:18;;;;;;;8.97;6.53;;;13.10;99.90;;;;;;10507171;28;21185;-81
2022/12/07 01:48:27;;;;;;;8.77;6.87;;;13.60;99.90;;;;;;10530034;28;20229;-82
2022/12/07 01:53:31;;;;;;;8.70;7.10;;;13.30;99.90;;;;;;10526863;28;20640;-82
2022/12/07 01:58:34;;;;;;;9.00;6.40;;;12.30;99.90;;;;;;10543664;27;20655;-82
2022/12/07 02:03:40;;;;;;;9.90;7.80;;;12.40;99.90;;;;;;10525272;28;20245;-81
2022/12/07 02:08:43;;;;;;;9.87;7.40;;;12.20;99.90;;;;;;10527412;28;20274;-82
2022/12/07 02:13:47;;;;;;;7.17;5.73;;;12.20;99.90;;;;;;10520566;28;20241;-82
2022/12/07 02:19:01;;;;;;;7.07;6.30;;;12.30;99.90;;;;;;10509281;28;20225;-81
2022/12/07 02:24:16;;;;;;;8.63;6.87;;;11.90;99.90;;;;;;10508742;28;20289;-82
2022/12/07 02:29:28;;;;;;;10.07;6.13;;;11.80;99.90;;;;;;10541299;28;20654;-82
2022/12/07 02:34:48;;;;;;;7.67;5.90;;;12.00;99.90;;;;;;10507020;28;20237;-82
2022/12/07 02:40:01;;;;;;;9.00;6.53;;;12.70;99.90;;;;;;10526512;28;20236;-82
2022/12/07 02:45:06;;;;;;;6.63;6.00;;;13.50;99.90;;;;;;10519572;28;20318;-82
2022/12/07 02:50:09;;;;;;;9.87;7.93;;;12.90;99.90;;;;;;10538189;28;20286;-82
2022/12/07 02:55:15;;;;;;;9.60;7.20;;;12.50;99.90;;;;;;10508475;28;20233;-82
2022/12/07 03:00:21;;;;;;;7.80;6.10;;;12.30;99.90;;;;;;10531613;28;20276;-81
2022/12/07 03:05:26;;;;;;;7.43;6.47;;;12.30;99.90;;;;;;10532720;28;20239;-81
2022/12/07 03:10:57;;;;;;;7.67;6.00;;;12.30;99.90;;;;;;10521504;28;20652;-81
2022/12/07 03:16:28;;;;;;;5.73;5.13;;;12.50;99.90;;;;;;10521382;28;20233;-81
2022/12/07 03:21:40;;;;;;;8.33;5.93;;;12.30;99.90;;;;;;10521126;28;20623;-82
2022/12/07 03:26:48;;;;;;;7.03;5.63;;;12.50;99.90;;;;;;10520403;28;20201;-82
2022/12/07 03:32:06;;;;;;;6.80;4.97;;;12.10;99.90;;;;;;10520093;28;20770;-81
2022/12/07 03:37:29;;;;;;;5.30;4.80;;;12.30;99.90;;;;;;10520780;28;20278;-81
2022/12/07 03:42:33;;;;;;;5.50;5.00;;;12.10;99.90;;;;;;10519983;28;20974;-81
2022/12/07 03:47:41;;;;;;;6.23;4.90;;;11.60;99.90;;;;;;10538250;28;20206;-82
2022/12/07 03:52:55;;;;;;;7.40;5.13;;;11.80;99.90;;;;;;10519719;28;20743;-82
2022/12/07 03:58:02;;;;;;;5.07;4.20;;;12.10;99.90;;;;;;10536140;28;20576;-81
2022/12/07 04:03:04;;;;;;;6.33;5.30;;;11.80;99.90;;;;;;10537112;28;20294;-81
2022/12/07 04:08:07;;;;;;;5.17;4.67;;;11.80;99.90;;;;;;10537174;28;20194;-82
2022/12/07 04:13:09;;;;;;;6.03;5.43;;;11.60;99.90;;;;;;10519143;28;20201;-81
2022/12/07 04:18:12;;;;;;;4.80;4.40;;;11.60;99.90;;;;;;10536817;28;20229;-81
2022/12/07 04:23:14;;;;;;;4.50;4.10;;;11.70;99.90;;;;;;10518670;28;20295;-82
2022/12/07 04:28:17;;;;;;;5.67;4.83;;;11.90;99.90;;;;;;10518553;28;20205;-81
2022/12/07 04:33:19;;;;;;;6.13;5.23;;;12.20;99.90;;;;;;10536304;28;20685;-82
2022/12/07 04:38:22;;;;;;;4.93;4.43;;;11.60;99.90;;;;;;10518167;28;20263;-81
2022/12/07 04:43:24;;;;;;;5.47;4.53;;;11.90;99.90;;;;;;10535498;28;20253;-81
2022/12/07 04:48:27;;;;;;;6.17;4.30;;;11.60;99.90;;;;;;10535827;28;20278;-81
2022/12/07 04:53:29;;;;;;;5.90;5.13;;;11.10;99.90;;;;;;10535376;28;20233;-81
2022/12/07 04:58:32;;;;;;;6.03;4.30;;;12.00;99.90;;;;;;10500213;28;20232;-81
2022/12/07 05:03:35;;;;;;;5.57;4.93;;;12.10;99.90;;;;;;10535076;28;20578;-81
2022/12/07 05:08:38;;;;;;;5.17;4.63;;;11.70;99.90;;;;;;10516749;28;20225;-81
2022/12/07 05:13:41;;;;;;;6.20;4.80;;;12.30;99.90;;;;;;10534503;28;20464;-81
2022/12/07 05:18:43;;;;;;;6.60;5.57;;;11.40;99.90;;;;;;10534301;28;20206;-81
2022/12/07 05:23:46;;;;;;;8.77;5.53;;;11.50;99.90;;;;;;10534558;28;20249;-81
2022/12/07 05:28:53;;;;;;;7.27;5.83;;;11.40;99.90;;;;;;10533829;28;20197;-81
2022/12/07 05:33:56;;;;;;;5.77;5.03;;;11.80;99.90;;;;;;10534469;28;20564;-81
2022/12/07 05:38:59;;;;;;;8.20;6.10;;;11.60;99.90;;;;;;10516013;28;20235;-81
2022/12/07 05:44:01;;;;;;;8.77;5.70;;;11.20;99.90;;;;;;10515988;28;20306;-81
2022/12/07 05:49:04;;;;;;;10.37;6.27;;;11.90;99.90;;;;;;10533981;28;20190;-81
2022/12/07 05:54:06;;;;;;;6.47;5.37;;;11.90;99.90;;;;;;10548930;28;20752;-82
2022/12/07 05:59:24;;;;;;;7.20;5.50;;;11.70;99.90;;;;;;10532709;28;20265;-82
2022/12/07 06:04:30;;;;;;;6.33;5.73;;;11.50;99.90;;;;;;10529423;28;20642;-81
2022/12/07 06:09:33;;;;;;;6.47;4.93;;;11.40;99.90;;;;;;10533676;28;20189;-82
2022/12/07 06:14:36;;;;;;;8.37;4.60;;;11.50;99.90;;;;;;10491695;28;20756;-82
2022/12/07 06:19:39;;;;;;;5.77;4.70;;;11.70;99.90;;;;;;10496642;28;20197;-81
2022/12/07 06:24:42;;;;;;;5.93;4.87;;;12.60;99.90;;;;;;10515027;28;20237;-82
2022/12/07 06:29:44;;;;;;;5.80;4.43;;;12.30;99.90;;;;;;10540277;28;20273;-81
2022/12/07 06:34:47;;;;;;;5.00;3.87;;;12.30;99.90;;;;;;10512940;28;20599;-82
2022/12/07 06:39:49;;;;;;;4.23;3.23;;;13.50;99.90;;;;;;10496372;28;20240;-82
2022/12/07 06:44:52;;;;;;;4.93;4.43;;;13.00;99.90;;;;;;10538796;28;20257;-82
2022/12/07 06:49:54;;;;;;;5.10;3.80;;;13.10;99.90;;;;;;10526963;28;20568;-82
2022/12/07 06:54:57;;;;;;;3.80;3.13;;;13.00;99.90;;;;;;10553813;28;20230;-82
2022/12/07 06:59:59;;;;;;;6.87;4.47;;;13.20;99.90;;;;;;10516673;28;20228;-86
2022/12/07 07:05:03;;;;;;;9.13;5.80;;;13.10;93.70;;;;;;10557921;28;20836;-86
2022/12/07 07:10:06;;;;;;;5.70;5.10;;;12.30;96.40;;;;;;10555342;28;20585;-86
2022/12/07 07:15:09;;;;;;;6.43;4.93;;;11.80;98.60;;;;;;10540527;28;20286;-87
2022/12/07 07:20:12;;;;;;;6.17;5.10;;;11.40;98.90;;;;;;10540328;28;20239;-86
2022/12/07 07:25:15;;;;;;;5.73;3.70;;;11.30;98.20;;;;;;10540073;28;20257;-86
2022/12/07 07:30:17;;;;;;;7.03;4.67;;;11.90;99.70;;;;;;10539996;28;20677;-86
2022/12/07 07:35:20;;;;;;;4.40;4.00;;;12.40;98.10;;;;;;10539984;28;20201;-86
2022/12/07 07:40:23;;;;;;;4.57;4.00;;;12.10;96.60;;;;;;10539547;28;20210;-86
2022/12/07 07:45:27;;;;;;;7.20;5.80;;;12.50;99.90;;;;;;10520856;28;20256;-86
2022/12/07 07:50:29;;;;;;;6.77;5.13;;;11.40;97.30;;;;;;10521000;28;20564;-86
2022/12/07 07:55:31;;;;;;;4.67;3.50;;;10.50;99.90;;;;;;10538582;28;20247;-86
2022/12/07 08:00:34;;;;;;;5.77;3.57;;;10.80;99.90;;;;;;10538994;28;20291;-86
2022/12/07 08:05:37;;;;;;;4.23;3.30;;;12.20;99.90;;;;;;10538324;28;20223;-86
2022/12/07 08:10:40;;;;;;;8.67;3.00;;;12.20;99.90;;;;;;10539043;28;20610;-86
2022/12/07 08:15:47;;;;;;;4.80;3.10;;;12.40;99.90;;;;;;10538858;28;20212;-87
2022/12/07 08:20:49;;;;;;;5.60;3.40;;;12.10;99.90;;;;;;10539918;28;20194;-87
2022/12/07 08:25:52;;;;;;;4.37;2.37;;;12.40;99.90;;;;;;10520900;28;20314;-87
2022/12/07 08:31:06;;;;;;;3.60;2.73;;;13.20;99.90;;;;;;10559365;28;20225;-86
2022/12/07 08:36:11;;;;;;;2.97;2.67;;;13.30;99.90;;;;;;10497655;28;20634;-86
2022/12/07 08:41:13;;;;;;;3.60;2.73;;;12.80;97.90;;;;;;10167758;28;10000408;-87
2022/12/07 08:46:48;;;;;;;3.77;3.40;;;13.00;99.90;;;;;;10535308;28;20310;-86
2022/12/07 08:51:51;;;;;;;2.87;2.60;;;12.90;99.60;;;;;;10536014;28;20201;-87
2022/12/07 08:56:54;;;;;;;3.93;2.90;;;13.00;99.90;;;;;;10476571;28;20924;-86
2022/12/07 09:02:01;;;;;;;3.40;2.83;;;13.20;99.90;;;;;;10510908;28;20321;-87
2022/12/07 09:07:04;;;;;;;4.97;2.80;;;12.80;99.90;;;;;;10535561;28;20211;-86
2022/12/07 09:12:06;;;;;;;9.03;7.13;;;13.20;99.90;;;;;;10538164;28;20200;-86
2022/12/07 09:17:11;;;;;;;5.63;5.10;;;12.00;96.20;;;;;;10522220;28;20578;-87
2022/12/07 09:22:13;;;;;;;4.13;3.20;;;11.20;96.70;;;;;;10546802;28;20286;-86
2022/12/07 09:27:17;;;;;;;5.40;4.40;;;11.70;99.90;;;;;;10589411;28;20243;-86
2022/12/07 09:32:20;;;;;;;10.97;6.40;;;11.30;99.90;;;;;;10592748;28;20201;-86
2022/12/07 09:37:22;;;;;;;9.60;6.27;;;11.20;99.90;;;;;;10605613;28;20193;-86
2022/12/07 09:42:27;;;;;;;7.20;5.13;;;10.60;99.90;;;;;;10624226;28;20205;-86
2022/12/07 09:47:30;;;;;;;8.90;6.03;;;10.50;99.90;;;;;;10608496;28;20209;-86
2022/12/07 09:52:33;;;;;;;5.27;4.57;;;10.50;99.90;;;;;;10627077;28;20192;-86
2022/12/07 09:57:41;;;;;;;8.73;3.33;;;10.50;99.90;;;;;;10627038;28;20208;-86
2022/12/07 10:02:53;;;;;;;2.33;1.63;;;11.20;99.90;;;;;;10625323;28;20435;-86
2022/12/07 10:07:55;;;;;;;4.53;3.60;;;11.60;99.90;;;;;;10627811;28;20165;-86
2022/12/07 10:13:01;;;;;;;3.70;3.40;;;11.90;99.90;;;;;;10610298;28;20217;-86
2022/12/07 10:18:03;;;;;;;10.30;7.60;;;12.00;99.90;;;;;;10635416;28;20210;-86
2022/12/07 10:23:15;;;;;;;4.07;3.67;;;11.50;99.90;;;;;;10635966;28;20246;-86
2022/12/07 10:28:18;;;;;;;5.80;3.40;;;12.80;99.90;;;;;;10633733;28;20195;-86
2022/12/07 10:33:31;;;;;;;10.33;6.87;;;12.90;99.90;;;;;;10635296;28;20219;-85
2022/12/07 10:38:33;;;;;;;6.67;4.67;;;12.00;99.90;;;;;;10617724;28;20214;-86
2022/12/07 10:43:35;;;;;;;4.90;4.03;;;13.00;99.90;;;;;;10619371;28;20220;-87
2022/12/07 10:48:56;;;;;;;3.67;2.17;;;12.50;99.90;;;;;;10636280;28;20234;-87
2022/12/07 10:54:24;;;;;;;9.97;6.57;;;12.60;99.90;;;;;;10615599;28;20182;-87
2022/12/07 11:00:00;;;;;;;5.97;4.40;;;12.10;99.50;;;;;;10629491;28;20217;-87
2022/12/07 11:05:22;;;;;;;4.97;3.67;;;11.70;99.90;;;;;;10634874;28;20200;-87
2022/12/07 11:10:30;;;;;;;3.43;2.93;;;12.40;99.90;;;;;;10635204;28;20180;-87
2022/12/07 11:16:01;;;;;;;5.03;3.70;;;12.30;99.90;;;;;;10634896;28;20209;-86
2022/12/07 11:21:40;;;;;;;5.63;4.53;;;12.90;99.90;;;;;;10616657;28;20172;-86
2022/12/07 11:27:15;;;;;;;9.97;7.30;;;12.30;99.90;;;;;;10613253;28;20204;-87
2022/12/07 11:32:32;;;;;;;5.23;3.70;;;11.90;99.90;;;;;;10589332;28;20190;-86
2022/12/07 11:37:37;;;;;;;3.53;2.60;;;12.70;99.90;;;;;;10633411;28;20230;-87
2022/12/07 11:43:10;;;;;;;10.63;7.60;;;12.80;99.90;;;;;;10630393;28;20290;-87
2022/12/07 11:48:22;;;;;;;3.63;3.03;;;12.30;99.90;;;;;;10619825;28;20234;-85
2022/12/07 11:53:55;;;;;;;5.40;3.77;;;13.40;99.90;;;;;;10570188;28;20241;-88
2022/12/07 11:59:17;;;;;;;7.47;5.23;;;13.50;99.90;;;;;;10587832;28;20232;-87
2022/12/07 12:04:58;;;;;;;5.10;4.03;;;13.00;99.70;;;;;;10568672;28;20344;-87
2022/12/07 12:10:25;;;;;;;7.67;6.03;;;13.10;99.90;;;;;;10585759;28;20633;-87
2022/12/07 12:15:51;;;;;;;5.97;5.00;;;13.20;97.50;;;;;;10563323;28;20253;-87
2022/12/07 12:21:17;;;;;;;3.30;3.00;;;13.20;99.90;;;;;;10583770;28;20576;-87
2022/12/07 12:26:27;;;;;;;7.37;6.63;;;13.50;99.90;;;;;;10566114;28;20282;-87
2022/12/07 12:31:39;;;;;;;8.10;5.87;;;12.80;98.30;;;;;;10563885;28;20254;-87
2022/12/07 12:36:42;;;;;;;4.13;3.20;;;12.40;99.90;;;;;;10563224;28;20262;-87
2022/12/07 12:46:57;;;;;;;5.67;4.53;;;13.30;98.00;;;;;;10578427;28;20259;-85
2022/12/07 12:52:08;;;;;;;2.90;2.40;;;12.80;99.90;;;;;;10560748;28;20215;-86
2022/12/07 12:57:26;;;;;;;5.73;3.93;;;13.30;99.90;;;;;;10559636;28;20200;-85
2022/12/07 13:02:36;;;;;;;4.90;3.17;;;12.90;99.90;;;;;;10558992;28;20236;-85
2022/12/07 13:07:49;;;;;;;4.57;3.30;;;13.20;99.90;;;;;;10559706;28;20197;-85
2022/12/07 13:13:19;;;;;;;5.13;3.87;;;13.50;99.60;;;;;;10517367;28;20231;-84
2022/12/07 13:18:27;;;;;;;2.30;1.73;;;13.80;99.00;;;;;;10574338;28;20231;-84
2022/12/07 13:23:54;;;;;;;3.40;1.53;;;13.10;99.90;;;;;;10574522;28;20245;-85
2022/12/07 13:29:16;;;;;;;4.43;3.47;;;13.50;99.90;;;;;;10573716;28;20223;-84
2022/12/07 13:34:39;;;;;;;3.17;2.77;;;13.60;99.80;;;;;;10571672;28;20257;-86
2022/12/07 13:39:56;;;;;;;1.20;1.10;;;14.00;99.90;;;;;;10577783;27;20277;-87
2022/12/07 13:45:01;;;;;;;3.70;3.27;;;14.10;99.50;;;;;;10587991;27;20306;-87
2022/12/07 13:50:22;;;;;;;4.60;3.70;;;13.50;99.90;;;;;;10580016;27;20186;-86
2022/12/07 13:55:25;;;;;;;4.47;3.63;;;13.20;98.30;;;;;;10562610;28;20226;-86
2022/12/07 14:00:29;;;;;;;2.73;1.87;;;13.30;95.30;;;;;;10556786;28;20228;-87
2022/12/07 14:05:35;;;;;;;6.00;3.83;;;14.10;99.90;;;;;;10577603;28;20230;-86
2022/12/07 14:10:48;;;;;;;4.97;3.23;;;13.50;74.00;;;;;;10558400;28;20617;-87
2022/12/07 14:15:52;;;;;;;2.63;2.27;;;12.90;81.00;;;;;;10557898;28;20206;-86
2022/12/07 14:21:23;;;;;;;2.60;1.87;;;12.30;80.90;;;;;;10576052;28;20600;-86
2022/12/07 14:26:25;;;;;;;4.90;2.70;;;11.70;90.40;;;;;;10551470;28;20270;-87
2022/12/07 14:31:28;;;;;;;4.20;2.83;;;11.30;91.10;;;;;;10557982;28;20205;-87
2022/12/07 14:36:32;;;;;;;4.57;1.40;;;11.40;93.70;;;;;;10558214;28;20266;-87
2022/12/07 14:41:53;;;;;;;5.03;3.47;;;12.00;98.20;;;;;;10559604;28;20581;-87
2022/12/07 14:46:55;;;;;;;3.97;2.80;;;12.20;95.80;;;;;;10555881;28;20256;-87
2022/12/07 14:52:26;;;;;;;1.87;1.73;;;12.50;98.60;;;;;;10559905;28;20222;-87
2022/12/07 14:57:48;;;;;;;6.03;3.67;;;12.40;99.90;;;;;;10559366;28;20209;-87
2022/12/07 15:02:52;;;;;;;4.03;3.27;;;12.30;99.90;;;;;;10543025;28;20304;-86
2022/12/07 15:07:54;;;;;;;3.87;2.60;;;11.90;99.90;;;;;;10564079;28;20236;-87
2022/12/07 15:18:21;;;;;;;6.33;4.13;;;12.20;99.90;;;;;;10581394;28;20566;-87
2022/12/07 15:23:23;;;;;;;3.97;2.07;;;12.50;99.90;;;;;;10563806;28;20546;-87
2022/12/07 15:28:26;;;;;;;2.00;1.33;;;12.90;99.90;;;;;;10580646;28;20281;-86
2022/12/07 15:33:28;;;;;;;4.93;2.37;;;13.20;99.90;;;;;;10562789;28;20250;-87
2022/12/07 15:38:31;;;;;;;2.13;1.83;;;12.90;99.90;;;;;;10563375;28;20217;-86
2022/12/07 15:49:17;;;;;;;2.23;2.03;;;13.00;99.90;;;;;;10581815;28;20191;-86
2022/12/07 15:54:22;;;;;;;1.63;1.13;;;12.90;99.90;;;;;;10562522;28;20253;-86
2022/12/07 15:59:26;;;;;;;5.17;3.37;;;13.60;99.90;;;;;;10561137;28;20236;-87
2022/12/07 16:04:29;;;;;;;4.67;2.70;;;12.30;91.30;;;;;;10570774;28;20712;-86
2022/12/07 16:09:32;;;;;;;4.50;1.93;;;12.20;94.10;;;;;;10579380;28;20186;-87
2022/12/07 16:14:35;;;;;;;3.13;2.67;;;12.10;94.20;;;;;;10562030;28;20210;-87
2022/12/07 16:19:38;;;;;;;1.90;1.47;;;12.00;93.50;;;;;;10581035;28;20193;-87
2022/12/07 16:24:40;;;;;;;3.33;2.63;;;12.50;94.50;;;;;;10580397;28;20277;-87
2022/12/07 16:29:43;;;;;;;1.30;0.90;;;12.30;93.50;;;;;;10545173;28;20255;-87
2022/12/07 16:34:45;;;;;;;1.40;1.13;;;13.00;95.40;;;;;;10580281;28;20205;-87
2022/12/07 16:39:47;;;;;;;3.07;2.17;;;12.90;95.70;;;;;;10561482;28;20201;-87
2022/12/07 16:44:50;;;;;;;0.83;0.47;;;12.80;93.80;;;;;;10579860;28;20718;-87
2022/12/07 16:49:52;;;;;;;3.67;2.47;;;13.10;97.80;;;;;;10561868;28;20219;-87
2022/12/07 16:54:55;;;;;;;5.10;3.40;;;12.90;97.80;;;;;;10579353;28;20235;-81
2022/12/07 16:59:57;;;;;;;9.30;6.27;;;12.90;83.10;;;;;;10559518;28;20282;-80
2022/12/07 17:05:00;;;;;;;2.77;1.40;;;7.10;90.90;;;;;;10575470;27;20933;-80
2022/12/07 17:10:03;;;;;;;4.83;3.60;;;10.00;99.90;;;;;;10570590;27;20207;-81
2022/12/07 17:15:18;;;;;;;5.60;2.13;;;11.10;99.00;;;;;;10577480;28;20197;-80
2022/12/07 17:20:23;;;;;;;5.30;3.37;;;11.10;99.90;;;;;;10559333;27;20225;-80
2022/12/07 17:25:25;;;;;;;6.50;3.47;;;11.60;99.90;;;;;;10569812;28;20284;-81
2022/12/07 17:30:28;;;;;;;4.90;3.20;;;11.60;99.90;;;;;;10555868;27;20753;-80
2022/12/07 17:35:30;;;;;;;5.83;4.13;;;11.90;99.90;;;;;;10558793;28;20205;-80
2022/12/07 17:40:32;;;;;;;3.33;2.47;;;11.20;99.90;;;;;;10557452;28;20262;-80
2022/12/07 17:45:36;;;;;;;4.57;3.37;;;11.50;99.90;;;;;;10557115;28;20694;-81
2022/12/07 17:56:00;;;;;;;18.93;11.17;;;10.90;99.90;;;;;;10575303;28;20641;-81
2022/12/07 18:01:22;;;;;;;16.20;8.77;;;9.30;89.00;;;;;;10574850;28;20892;-81
2022/12/07 18:06:27;;;;;;;11.33;7.07;;;10.20;99.90;;;;;;10574307;28;20282;-81
2022/12/07 18:11:29;;;;;;;14.67;7.87;;;10.00;99.90;;;;;;10557317;28;20220;-81
2022/12/07 18:16:34;;;;;;;12.63;6.97;;;8.40;97.90;;;;;;10568249;28;20225;-80
2022/12/07 18:21:36;;;;;;;13.90;7.60;;;8.70;99.90;;;;;;10574996;28;20792;-80
2022/12/07 18:26:40;;;;;;;13.87;6.70;;;8.10;99.90;;;;;;10574632;28;20926;-80
2022/12/07 18:31:46;;;;;;;8.87;6.23;;;9.20;99.90;;;;;;10585459;28;20223;-80
2022/12/07 18:36:49;;;;;;;15.50;6.83;;;9.10;99.90;;;;;;10560123;28;20289;-81
2022/12/07 18:41:51;;;;;;;19.40;11.50;;;9.60;99.90;;;;;;10583335;28;20224;-81
2022/12/07 18:46:54;;;;;;;17.83;10.60;;;7.10;95.30;;;;;;10563968;28;20248;-81
2022/12/07 18:51:57;;;;;;;17.97;10.60;;;4.50;99.90;;;;;;10589964;27;20224;-80
2022/12/07 18:56:59;;;;;;;18.90;11.47;;;3.00;99.90;;;;;;10576365;28;20628;-81
2022/12/07 19:02:02;;;;;;;19.00;10.73;;;;;;;;;;10603599;27;20316;-80
2022/12/07 19:07:04;;;;;;;17.70;9.23;;;1.80;99.90;;;;;;10539472;28;20248;-80
2022/12/07 19:12:12;;;;;;;17.70;10.50;;;1.90;99.90;;;;;;10571266;28;20228;-80
2022/12/07 19:17:15;;;;;;;7.50;3.23;;;;;;;;;;10580781;27;21085;-80
2022/12/07 19:22:20;;;;;;;10.43;4.53;;;2.90;99.90;;;;;;10581302;27;20232;-80
2022/12/07 19:27:23;;;;;;;5.67;4.00;;;7.50;99.90;;;;;;10561594;28;20248;-81
2022/12/07 19:32:27;;;;;;;7.97;4.03;;;10.10;99.90;;;;;;10580297;28;20232;-80
2022/12/07 19:37:29;;;;;;;10.80;5.50;;;11.20;99.90;;;;;;10602185;27;20196;-80
2022/12/07 19:42:34;;;;;;;8.80;5.33;;;11.30;99.90;;;;;;10598113;27;20904;-80
2022/12/07 19:47:37;;;;;;;10.10;6.13;;;11.50;99.90;;;;;;10561052;28;20822;-80
2022/12/07 19:52:39;;;;;;;7.70;4.60;;;12.10;99.90;;;;;;10544421;28;20285;-81
2022/12/07 19:57:41;;;;;;;13.53;8.73;;;12.20;99.90;;;;;;10547108;27;20254;-80
2022/12/07 20:02:44;;;;;;;17.13;10.13;;;8.60;85.50;;;;;;10613964;27;20236;-80
2022/12/07 20:07:50;;;;;;;15.90;9.50;;;4.70;99.90;;;;;;10574056;27;20287;-80
2022/12/07 20:18:20;;;;;;;15.40;9.33;;;2.60;99.90;;;;;;10576508;27;20303;-80
2022/12/07 20:23:26;;;;;;;13.10;9.40;;;1.50;99.90;;;;;;10554716;27;20571;-81
2022/12/07 20:28:35;;;;;;;13.43;8.93;;;;;;;;;;10567228;27;20245;-79
2022/12/07 20:33:37;;;;;;;18.80;9.40;;;0.60;99.90;;;;;;10599512;27;20268;-81
2022/12/07 20:38:41;;;;;;;18.97;8.90;;;0.50;99.90;;;;;;10595406;27;20230;-81
2022/12/07 20:43:43;;;;;;;19.20;10.10;;;0.30;99.90;;;;;;10542188;28;20244;-81
2022/12/07 20:48:45;;;;;;;18.27;9.57;;;0.30;99.90;;;;;;10577379;28;20707;-81
2022/12/07 20:53:48;;;;;;;16.27;9.43;;;0.40;99.90;;;;;;10572683;28;20236;-80
2022/12/07 20:58:50;;;;;;;18.27;8.87;;;0.30;99.90;;;;;;10575522;28;20768;-81
2022/12/07 21:03:54;;;;;;;18.13;10.30;;;0.20;99.90;;;;;;10564629;28;20603;-80
2022/12/07 21:08:58;;;;;;;15.07;9.23;;;0.20;99.90;;;;;;10596701;27;20294;-79
2022/12/07 21:14:01;;;;;;;15.30;7.87;;;;;;;;;;10617063;27;20226;-80
2022/12/07 21:19:04;;;;;;;12.73;6.83;;;0.30;99.90;;;;;;10618468;27;20229;-80
2022/12/07 21:24:07;;;;;;;8.87;4.73;;;0.20;99.90;;;;;;10555249;27;20212;-81
2022/12/07 21:29:09;;;;;;;10.30;5.43;;;0.60;99.90;;;;;;10569049;27;20248;-80
2022/12/07 21:34:12;;;;;;;14.33;7.83;;;2.60;99.90;;;;;;10573630;28;20277;-80
2022/12/07 21:39:14;;;;;;;12.77;5.67;;;2.50;99.90;;;;;;10574545;28;20270;-81
2022/12/07 21:44:16;;;;;;;5.20;3.83;;;2.00;99.90;;;;;;10558625;28;20224;-80
2022/12/07 21:49:19;;;;;;;13.60;4.87;;;1.60;99.90;;;;;;10556662;27;20314;-81
2022/12/07 21:54:21;;;;;;;10.17;3.90;;;3.10;99.90;;;;;;10559624;28;20230;-80
2022/12/07 21:59:27;;;;;;;7.10;3.90;;;5.20;99.90;;;;;;10555719;28;20305;-81
2022/12/07 22:04:30;;;;;;;7.47;3.83;;;4.60;99.90;;;;;;10589420;27;20235;-81
2022/12/07 22:09:32;;;;;;;8.00;5.07;;;3.20;99.90;;;;;;10583514;27;20683;-81
2022/12/07 22:19:56;;;;;;;6.80;3.83;;;1.80;99.90;;;;;;10556675;28;20859;-80
2022/12/07 22:24:59;;;;;;;6.17;3.90;;;1.40;99.90;;;;;;10555064;28;20221;-81
2022/12/07 22:30:02;;;;;;;6.07;3.57;;;0.90;99.90;;;;;;10556610;28;20224;-81
2022/12/07 22:35:05;;;;;;;8.63;4.57;;;0.80;99.90;;;;;;10582363;28;20613;-82
2022/12/07 22:40:08;;;;;;;5.47;3.97;;;1.00;99.90;;;;;;10576767;28;20221;-82
2022/12/07 22:45:10;;;;;;;8.90;4.40;;;0.80;99.90;;;;;;10577034;28;20300;-81
2022/12/07 22:50:13;;;;;;;9.63;4.57;;;1.00;99.90;;;;;;10576921;28;20590;-81
2022/12/07 22:55:15;;;;;;;8.63;3.83;;;1.20;99.90;;;;;;10573379;28;20224;-81
2022/12/07 23:00:18;;;;;;;10.37;4.77;;;1.10;99.90;;;;;;10573559;28;20260;-80
2022/12/07 23:05:20;;;;;;;8.67;3.53;;;1.30;99.90;;;;;;10567570;28;20252;-80
2022/12/07 23:10:23;;;;;;;7.93;3.57;;;7.70;99.90;;;;;;10554734;28;20210;-80
2022/12/07 23:15:25;;;;;;;3.93;2.50;;;10.40;99.90;;;;;;10571999;28;20236;-80
2022/12/07 23:20:29;;;;;;;11.53;4.23;;;12.20;99.90;;;;;;10572126;28;20671;-80
2022/12/07 23:25:31;;;;;;;7.37;3.80;;;13.30;99.90;;;;;;10581126;27;20640;-80
2022/12/07 23:30:34;;;;;;;8.23;3.77;;;13.30;99.90;;;;;;10562267;28;20206;-81
2022/12/07 23:35:36;;;;;;;5.93;2.67;;;14.00;99.90;;;;;;10581038;28;20232;-80
2022/12/07 23:40:39;;;;;;;5.40;1.87;;;13.90;99.90;;;;;;10581188;28;20196;-80
2022/12/07 23:45:45;;;;;;;6.37;2.57;;;14.20;99.90;;;;;;10544439;28;20693;-80
2022/12/07 23:50:47;;;;;;;9.10;2.73;;;14.50;99.90;;;;;;10580670;28;20274;-80
2022/12/07 23:55:50;;;;;;;4.37;2.37;;;14.20;99.90;;;;;;10562236;28;20201;-80
